METAR AND TAF INFORMATION
METAR FOR ELLX
ADDS - METARS form results

(2316 UTC 21 April 2018)
Data provider http://aviationweather.gov/adds/metars/
 
METAR text: ELLX 212250Z 06007KT CAVOK 19/10 Q1017 NOSIG
Conditions at: ELLX (LUXEMBOURG (AUT), LU) observed 2250 UTC 21 April 2018
Temperature: 19.0°C (66°F)
Dewpoint: 10.0°C (50°F) [RH = 56%]
Pressure (altimeter): 30.03 inches Hg (1017.0 mb)
Winds: from the ENE (60 degrees) at 8 MPH (7 knots; 3.6 m/s)
Visibility: 6 or more miles (10+ km)
Ceiling: ceiling and visibility are OK
Clouds: unknown
Weather: no significant weather observed at this time

METAR text: ELLX 212220Z 05008KT CAVOK 19/10 Q1017 NOSIG
Conditions at: ELLX (LUXEMBOURG (AUT), LU) observed 2220 UTC 21 April 2018
Temperature: 19.0°C (66°F)
Dewpoint: 10.0°C (50°F) [RH = 56%]
Pressure (altimeter): 30.03 inches Hg (1017.0 mb)
Winds: from the NE (50 degrees) at 9 MPH (8 knots; 4.2 m/s)
Visibility: 6 or more miles (10+ km)
Ceiling: ceiling and visibility are OK
Clouds: unknown
Weather: no significant weather observed at this time

Forecast for: ELLX (LUXEMBOURG (AUT), LU)
Text: TAF ELLX 211700Z 2118/2224 VRB03KT CAVOK
Forecast period: 1800 UTC 21 April 2018 to 0900 UTC 22 April 2018
Forecast type: FROM: standard forecast or significant change
Winds: variable direction winds at 3 MPH (3 knots; 1.6 m/s)
Visibility: 6 or more miles (10+ km)
Clouds: not forecast
Weather: NSW  (no significant weather)
Forecast for: ELLX (LUXEMBOURG (AUT), LU)
Text: TAF ELLX 211700Z 2118/2224 VRB03KT CAVOK
Forecast period: 1800 UTC 21 April 2018 to 0900 UTC 22 April 2018
Forecast type: FROM: standard forecast or significant change
Winds: variable direction winds at 3 MPH (3 knots; 1.6 m/s)
Visibility: 6 or more miles (10+ km)
Clouds: not forecast
Weather: NSW  (no significant weather)
Forecast for: ELLX (LUXEMBOURG (AUT), LU)
Text: TAF ELLX 211700Z 2118/2224 VRB03KT CAVOK
Forecast period: 0900 UTC 22 April 2018 to 0000 UTC 23 April 2018
Forecast type: BECOMING: Conditions expected to become as follows by 1100 UTC 22 April 2018
Winds: from the SSW (210 degrees) at 10 MPH (9 knots; 4.7 m/s)
Visibility: 6 or more miles (10+ km)
Weather: NSW  (no significant weather)
Forecast for: ELLX (LUXEMBOURG (AUT), LU)
Text: TAF ELLX 211700Z 2118/2224 VRB03KT CAVOK
Forecast period: 0900 UTC 22 April 2018 to 0000 UTC 23 April 2018
Forecast type: BECOMING: Conditions expected to become as follows by 1100 UTC 22 April 2018
Winds: from the SSW (210 degrees) at 10 MPH (9 knots; 4.7 m/s)
Visibility: 6 or more miles (10+ km)
Weather: NSW  (no significant weather)
Forecast for: ELLX (LUXEMBOURG (AUT), LU)
Text: TAF ELLX 211700Z 2118/2224 VRB03KT CAVOK
Forecast period: 1500 to 2200 UTC 22 April 2018
Forecast type: TEMPORARY: The following changes expected for less than half the time period
Clouds: scattered clouds at 5000 feet AGL
Weather: no significant weather forecast for this period
Forecast for: ELLX (LUXEMBOURG (AUT), LU)
Text: TAF ELLX 211700Z 2118/2224 VRB03KT CAVOK
Forecast period: 1500 to 2200 UTC 22 April 2018
Forecast type: TEMPORARY: The following changes expected for less than half the time period
Clouds: scattered clouds at 5000 feet AGL
Weather: no significant weather forecast for this period
Forecast for: ELLX (LUXEMBOURG (AUT), LU)
Text: TAF ELLX 211700Z 2118/2224 VRB03KT CAVOK
Forecast period: 1600 to 2000 UTC 22 April 2018
Forecast type: TEMPORARY: The following changes expected for less than half the time period
Clouds: scattered clouds at 4000 feet AGL
Weather: -TSRA  (light rain associated with thunderstorm(s))
Forecast for: ELLX (LUXEMBOURG (AUT), LU)
Text: TAF ELLX 211700Z 2118/2224 VRB03KT CAVOK
Forecast period: 1600 to 2000 UTC 22 April 2018
Forecast type: TEMPORARY: The following changes expected for less than half the time period
Clouds: scattered clouds at 4000 feet AGL
Weather: -TSRA  (light rain associated with thunderstorm(s))

 AIRPORT MAP

 RUNWAY INFORMATION
Runway 06 Runway length 13123 ft Runway width 197 ft
Runway elevation 1158 ft Runway displaced threshold 0 ft Runway heading 60
Runway 24 Runway length 13123 ft Runway width 197 ft
Runway elevation 1214 ft Runway displaced threshold 0 ft Runway heading 240

 AIRPORT FREQUENCIES
Type APP Name APP Frequency 118.9 MHZ
Type ATIS Name ATIS Frequency 135.55 MHZ
Type TWR Name TWR Frequency 118.1 MHZ

 AIRPORT NEAR NAVIGATION AIDS
Type NDB Name Luxembourg Frequency 369 KHZ
Type VOR-DME Name Luxembourg Frequency 112250 KHZ
Type NDB Name Luxembourg Frequency 346 KHZ



© 2017-2018 LuxairVA.com | All Rights Reserved |